createdAt,value
2019-05-30T00:02:15.898Z,7.70
2019-05-30T00:04:45.785Z,7.70
2019-05-30T00:07:16.093Z,7.70
2019-05-30T00:09:46.359Z,7.80
2019-05-30T00:12:16.927Z,7.80
2019-05-30T00:14:47.579Z,7.80
2019-05-30T00:17:17.168Z,7.90
2019-05-30T00:19:48.356Z,7.90
2019-05-30T00:22:18.302Z,7.90
2019-05-30T00:24:48.847Z,7.90
2019-05-30T00:27:19.067Z,7.90
2019-05-30T00:29:48.962Z,7.90
2019-05-30T00:32:18.892Z,7.90
2019-05-30T00:34:48.566Z,7.80
2019-05-30T00:37:21.465Z,7.80
2019-05-30T00:39:50.739Z,7.80
2019-05-30T00:42:20.379Z,7.80
2019-05-30T00:44:49.915Z,7.80
2019-05-30T00:47:20.158Z,7.70
2019-05-30T00:49:50.387Z,7.80
2019-05-30T00:52:20.623Z,7.80
2019-05-30T00:54:50.544Z,8.00
2019-05-30T00:57:20.460Z,8.20
2019-05-30T00:59:50.749Z,8.50
2019-05-30T01:02:20.436Z,8.40
2019-05-30T01:04:50.791Z,8.50
2019-05-30T01:07:20.723Z,8.60
2019-05-30T01:09:51.420Z,8.50
2019-05-30T01:12:21.126Z,8.30
2019-05-30T01:14:50.700Z,8.20
2019-05-30T01:17:20.971Z,8.10
2019-05-30T01:19:50.815Z,8.00
2019-05-30T01:22:20.930Z,7.90
2019-05-30T01:24:51.033Z,7.70
2019-05-30T01:27:21.978Z,7.60
2019-05-30T01:29:52.487Z,7.50
2019-05-30T01:32:28.984Z,7.50
2019-05-30T01:35:00.185Z,7.40
2019-05-30T01:37:30.504Z,7.30
2019-05-30T01:40:01.887Z,7.30
2019-05-30T01:42:31.928Z,7.20
2019-05-30T01:45:02.439Z,7.10
2019-05-30T01:47:32.502Z,7.00
2019-05-30T01:50:02.497Z,6.90
2019-05-30T01:52:33.134Z,6.80
2019-05-30T01:55:04.631Z,6.80
2019-05-30T01:57:34.599Z,6.80
2019-05-30T02:00:07.989Z,6.80
2019-05-30T02:02:38.960Z,6.70
2019-05-30T02:05:09.547Z,6.70
2019-05-30T02:07:39.822Z,6.60
2019-05-30T02:10:10.056Z,6.60
2019-05-30T02:12:40.831Z,6.60
2019-05-30T02:15:11.003Z,6.60
2019-05-30T02:17:40.961Z,6.60
2019-05-30T02:20:11.440Z,6.60
2019-05-30T02:22:41.385Z,6.60
2019-05-30T02:25:11.813Z,6.60
2019-05-30T02:27:41.674Z,6.70
2019-05-30T02:30:14.741Z,6.70
2019-05-30T02:32:44.317Z,6.70
2019-05-30T02:35:14.785Z,6.60
2019-05-30T02:37:45.115Z,6.70
2019-05-30T02:40:15.621Z,6.70
2019-05-30T02:42:45.595Z,6.70
2019-05-30T02:45:16.261Z,6.80
2019-05-30T02:47:46.464Z,6.70
2019-05-30T02:50:17.074Z,6.70
2019-05-30T02:52:47.666Z,6.70
2019-05-30T02:55:17.854Z,6.60
2019-05-30T02:57:47.410Z,6.60
2019-05-30T03:00:18.719Z,6.60
2019-05-30T03:02:48.979Z,6.60
2019-05-30T03:05:19.223Z,6.50
2019-05-30T03:07:49.223Z,6.50
2019-05-30T03:10:19.093Z,6.60
2019-05-30T03:12:50.646Z,6.60
2019-05-30T03:15:20.802Z,6.60
2019-05-30T03:17:50.313Z,6.70
2019-05-30T03:20:23.133Z,6.70
2019-05-30T03:22:52.115Z,6.70
2019-05-30T03:25:21.702Z,6.80
2019-05-30T03:27:51.899Z,6.70
2019-05-30T03:30:27.906Z,6.70
2019-05-30T03:33:15.866Z,6.50
2019-05-30T03:35:31.319Z,6.50
2019-05-30T03:37:58.732Z,6.50
2019-05-30T03:40:30.164Z,6.50
2019-05-30T03:43:00.801Z,6.40
2019-05-30T03:45:32.558Z,6.50
2019-05-30T03:48:06.654Z,6.50
2019-05-30T03:50:39.332Z,6.60
2019-05-30T03:53:12.024Z,6.70
2019-05-30T03:55:44.976Z,6.70
2019-05-30T03:58:23.198Z,6.90
2019-05-30T04:00:56.991Z,6.90
2019-05-30T04:03:48.627Z,6.90
2019-05-30T04:06:26.648Z,7.00
2019-05-30T04:09:06.997Z,7.20
2019-05-30T04:11:48.282Z,7.30
2019-05-30T04:14:22.798Z,7.40
2019-05-30T04:16:52.462Z,7.50
2019-05-30T04:19:22.838Z,7.60
2019-05-30T04:21:55.926Z,7.80
2019-05-30T04:24:26.939Z,8.10
2019-05-30T04:26:57.130Z,9.30
2019-05-30T04:29:27.688Z,10.70
2019-05-30T04:31:57.679Z,11.70
2019-05-30T04:34:27.990Z,12.80
2019-05-30T04:36:58.582Z,13.80
2019-05-30T04:39:28.889Z,14.10
2019-05-30T04:41:58.906Z,14.40
2019-05-30T04:44:29.115Z,15.00
2019-05-30T04:46:58.680Z,15.80
2019-05-30T04:49:28.901Z,15.90
2019-05-30T04:51:59.172Z,16.10
2019-05-30T04:54:29.089Z,16.20
2019-05-30T04:57:01.439Z,16.70
2019-05-30T04:59:31.677Z,16.70
2019-05-30T05:02:01.395Z,16.60
2019-05-30T05:04:32.865Z,16.10
2019-05-30T05:07:03.250Z,16.50
2019-05-30T05:09:33.542Z,17.10
2019-05-30T05:12:03.729Z,17.40
2019-05-30T05:14:34.799Z,17.80
2019-05-30T05:17:04.434Z,17.90
2019-05-30T05:19:33.760Z,17.90
2019-05-30T05:22:03.431Z,18.00
2019-05-30T05:24:33.687Z,18.60
2019-05-30T05:27:03.625Z,19.10
2019-05-30T05:29:33.628Z,18.30
2019-05-30T05:32:03.511Z,18.00
2019-05-30T05:34:33.309Z,17.30
2019-05-30T05:37:03.404Z,17.80
2019-05-30T05:39:33.315Z,18.20
2019-05-30T05:42:03.295Z,19.00
2019-05-30T05:44:33.617Z,19.30
2019-05-30T05:47:03.875Z,20.20
2019-05-30T05:49:34.470Z,20.20
2019-05-30T05:52:04.711Z,20.40
2019-05-30T05:54:34.951Z,21.40
2019-05-30T05:57:04.966Z,21.70
2019-05-30T05:59:34.876Z,21.50
2019-05-30T06:02:05.492Z,21.50
2019-05-30T06:04:35.107Z,21.20
2019-05-30T06:07:05.458Z,21.00
2019-05-30T06:09:35.765Z,20.80
2019-05-30T06:12:05.447Z,20.30
2019-05-30T06:14:35.121Z,20.20
2019-05-30T06:17:05.146Z,20.70
2019-05-30T06:19:45.748Z,21.50
2019-05-30T06:22:06.174Z,21.50
2019-05-30T06:24:36.420Z,21.50
2019-05-30T06:27:06.815Z,22.00
2019-05-30T06:29:37.058Z,22.90
2019-05-30T06:32:07.466Z,22.70
2019-05-30T06:34:39.544Z,22.80
2019-05-30T06:37:12.027Z,22.80
2019-05-30T06:39:42.259Z,23.60
2019-05-30T06:42:16.541Z,24.00
2019-05-30T06:44:46.526Z,24.20
2019-05-30T06:47:16.155Z,24.00
2019-05-30T06:49:45.850Z,23.70
2019-05-30T06:52:16.185Z,23.60
2019-05-30T06:54:46.751Z,23.20
2019-05-30T06:57:17.461Z,22.80
2019-05-30T06:59:47.724Z,22.90
2019-05-30T07:02:17.392Z,23.10
2019-05-30T07:04:52.182Z,23.20
2019-05-30T07:07:18.596Z,23.10
2019-05-30T07:09:49.164Z,22.90
2019-05-30T07:12:19.481Z,22.70
2019-05-30T07:14:49.206Z,22.70
2019-05-30T07:17:19.491Z,22.40
2019-05-30T07:19:49.878Z,22.20
2019-05-30T07:22:19.882Z,22.90
2019-05-30T07:24:50.513Z,21.50
2019-05-30T07:27:21.105Z,20.60
2019-05-30T07:29:51.395Z,20.20
2019-05-30T07:32:22.396Z,20.60
2019-05-30T07:35:05.538Z,21.10
2019-05-30T07:37:24.554Z,21.20
2019-05-30T07:39:54.601Z,21.10
2019-05-30T07:42:24.895Z,21.40
2019-05-30T07:44:54.844Z,21.60
2019-05-30T07:47:25.945Z,21.30
2019-05-30T07:49:56.026Z,21.70
2019-05-30T07:52:26.464Z,21.40
2019-05-30T07:54:57.115Z,21.30
2019-05-30T07:57:28.069Z,20.90
2019-05-30T07:59:58.401Z,21.10
2019-05-30T08:02:29.570Z,20.50
2019-05-30T08:05:00.283Z,20.40
2019-05-30T08:07:30.669Z,20.10
2019-05-30T08:10:00.975Z,20.90
2019-05-30T08:12:30.328Z,20.60
2019-05-30T08:15:00.277Z,20.50
2019-05-30T08:17:31.488Z,21.00
2019-05-30T08:20:01.905Z,21.00
2019-05-30T08:22:32.290Z,20.80
2019-05-30T08:25:02.863Z,20.90
2019-05-30T08:27:34.296Z,21.00
2019-05-30T08:30:04.952Z,21.00
2019-05-30T08:32:35.183Z,21.30
2019-05-30T08:35:04.767Z,21.40
2019-05-30T08:37:35.120Z,20.80
2019-05-30T08:40:06.482Z,20.90
2019-05-30T08:42:36.097Z,21.10
2019-05-30T08:45:09.737Z,20.20
2019-05-30T08:47:40.559Z,20.20
2019-05-30T08:50:11.656Z,20.20
2019-05-30T08:52:41.932Z,19.70
2019-05-30T08:55:12.063Z,19.20
2019-05-30T08:57:42.014Z,18.60
2019-05-30T09:00:13.137Z,18.20
2019-05-30T09:02:43.181Z,18.00
2019-05-30T09:05:14.384Z,18.20
2019-05-30T09:07:44.605Z,18.40
2019-05-30T09:10:16.357Z,18.40
2019-05-30T09:12:49.475Z,18.10
2019-05-30T09:15:21.866Z,18.20
2019-05-30T09:17:50.574Z,18.30
2019-05-30T09:20:21.532Z,18.30
2019-05-30T09:22:51.791Z,18.20
2019-05-30T09:25:22.082Z,18.30
2019-05-30T09:27:52.003Z,18.20
2019-05-30T09:30:23.647Z,18.30
2019-05-30T09:32:54.008Z,18.50
2019-05-30T09:35:24.913Z,18.60
2019-05-30T09:37:55.524Z,18.80
2019-05-30T09:40:26.376Z,18.70
2019-05-30T09:42:56.333Z,18.60
2019-05-30T09:45:27.539Z,18.90
2019-05-30T09:47:57.546Z,19.00
2019-05-30T09:50:28.326Z,19.00
2019-05-30T09:52:58.645Z,19.00
2019-05-30T09:55:28.746Z,19.00
2019-05-30T09:57:59.342Z,19.00
2019-05-30T10:00:30.088Z,19.10
2019-05-30T10:03:00.402Z,19.20
2019-05-30T10:05:30.992Z,19.30
2019-05-30T10:08:01.345Z,19.50
2019-05-30T10:10:31.744Z,19.70
2019-05-30T10:13:01.093Z,19.60
2019-05-30T10:15:31.380Z,19.40
2019-05-30T10:18:01.365Z,19.40
2019-05-30T10:20:31.747Z,19.50
2019-05-30T10:23:03.687Z,19.60
2019-05-30T10:25:33.716Z,19.20
2019-05-30T10:28:03.720Z,19.20
2019-05-30T10:30:33.893Z,19.10
2019-05-30T10:33:04.572Z,19.10
2019-05-30T10:35:34.918Z,19.30
2019-05-30T10:38:05.341Z,19.30
2019-05-30T10:40:35.531Z,19.50
2019-05-30T10:43:08.460Z,19.60
2019-05-30T10:45:38.702Z,19.20
2019-05-30T10:48:10.032Z,18.80
2019-05-30T10:50:40.427Z,18.70
2019-05-30T10:53:10.696Z,18.80
2019-05-30T10:55:41.351Z,18.90
2019-05-30T10:58:11.986Z,19.10
2019-05-30T11:00:48.956Z,19.10
2019-05-30T11:03:20.214Z,19.20
2019-05-30T11:05:57.180Z,19.50
2019-05-30T11:08:29.716Z,19.90
2019-05-30T11:10:59.974Z,19.90
2019-05-30T11:13:30.258Z,20.10
2019-05-30T11:16:00.544Z,20.10
2019-05-30T11:18:30.817Z,20.20
2019-05-30T11:21:01.244Z,20.00
2019-05-30T11:23:31.549Z,19.90
2019-05-30T11:26:01.544Z,20.00
2019-05-30T11:28:31.844Z,20.20
2019-05-30T11:31:04.538Z,20.30
2019-05-30T11:33:34.272Z,20.20
2019-05-30T11:36:04.286Z,20.50
2019-05-30T11:38:34.024Z,20.40
2019-05-30T11:41:04.256Z,20.30
2019-05-30T11:43:33.915Z,20.20
2019-05-30T11:46:03.499Z,20.00
2019-05-30T11:48:33.810Z,19.70
2019-05-30T11:51:03.737Z,19.40
2019-05-30T11:53:34.133Z,19.30
2019-05-30T11:56:04.649Z,19.50
2019-05-30T11:58:34.607Z,19.70
2019-05-30T12:01:04.486Z,19.80
2019-05-30T12:03:34.170Z,19.90
2019-05-30T12:06:04.170Z,20.00
2019-05-30T12:08:34.155Z,20.10
2019-05-30T12:11:04.411Z,20.10
2019-05-30T12:13:34.648Z,20.30
2019-05-30T12:16:04.286Z,20.30
2019-05-30T12:18:34.120Z,20.60
2019-05-30T12:21:04.342Z,20.50
2019-05-30T12:23:34.571Z,20.60
2019-05-30T12:26:04.840Z,20.60
2019-05-30T12:28:34.142Z,20.40
2019-05-30T12:31:06.361Z,20.50
2019-05-30T12:33:36.121Z,20.40
2019-05-30T12:36:06.602Z,20.30
2019-05-30T12:38:36.680Z,20.20
2019-05-30T12:41:06.299Z,20.20
2019-05-30T12:43:36.584Z,20.30
2019-05-30T12:46:07.136Z,20.50
2019-05-30T12:48:37.441Z,20.40
2019-05-30T12:51:07.363Z,20.50
2019-05-30T12:53:37.371Z,20.70
2019-05-30T12:56:07.398Z,20.70
2019-05-30T12:58:37.530Z,20.60
2019-05-30T13:01:07.779Z,20.70
2019-05-30T13:03:37.767Z,20.70
2019-05-30T13:06:07.585Z,20.60
2019-05-30T13:08:37.592Z,20.40
2019-05-30T13:11:07.758Z,20.40
2019-05-30T13:13:37.040Z,20.50
2019-05-30T13:16:08.931Z,20.70
2019-05-30T13:18:39.263Z,20.80
2019-05-30T13:21:09.354Z,20.60
2019-05-30T13:23:39.325Z,20.50
2019-05-30T13:26:09.985Z,20.50
2019-05-30T13:28:40.243Z,20.40
2019-05-30T13:31:10.218Z,20.40
2019-05-30T13:33:40.226Z,20.40
2019-05-30T13:36:10.516Z,20.50
2019-05-30T13:38:40.302Z,20.70
2019-05-30T13:41:11.004Z,20.80
2019-05-30T13:43:41.077Z,21.00
2019-05-30T13:46:11.475Z,21.00
2019-05-30T13:48:41.842Z,21.20
2019-05-30T13:51:11.822Z,21.20
2019-05-30T13:53:42.108Z,21.30
2019-05-30T13:56:11.692Z,21.30
2019-05-30T13:58:41.781Z,21.30
2019-05-30T14:01:14.021Z,21.20
2019-05-30T14:03:43.917Z,21.10
2019-05-30T14:06:15.073Z,21.10
2019-05-30T14:08:45.146Z,21.30
2019-05-30T14:11:15.753Z,21.50
2019-05-30T14:13:45.731Z,21.50
2019-05-30T14:16:15.717Z,21.50
2019-05-30T14:18:47.010Z,21.40
2019-05-30T14:21:17.619Z,21.20
2019-05-30T14:23:47.215Z,21.20
2019-05-30T14:26:17.518Z,21.00
2019-05-30T14:28:47.459Z,20.80
2019-05-30T14:31:17.707Z,20.70
2019-05-30T14:33:47.582Z,21.00
2019-05-30T14:36:17.587Z,21.30
2019-05-30T14:38:57.648Z,21.60
2019-05-30T14:41:19.520Z,21.70
2019-05-30T14:43:49.192Z,21.90
2019-05-30T14:46:19.088Z,21.80
2019-05-30T14:48:49.027Z,21.50
2019-05-30T14:51:19.295Z,21.40
2019-05-30T14:53:48.901Z,21.10
2019-05-30T14:56:19.246Z,21.20
2019-05-30T14:58:49.828Z,21.20
2019-05-30T15:01:19.803Z,21.30
2019-05-30T15:03:52.532Z,21.40
2019-05-30T15:06:23.157Z,21.20
2019-05-30T15:08:53.105Z,21.00
2019-05-30T15:11:23.479Z,21.10
2019-05-30T15:13:57.797Z,21.20
2019-05-30T15:16:27.905Z,21.20
2019-05-30T15:18:59.913Z,21.40
2019-05-30T15:21:30.440Z,21.30
2019-05-30T15:24:00.515Z,21.30
2019-05-30T15:26:30.649Z,21.10
2019-05-30T15:29:01.197Z,21.10
2019-05-30T15:31:31.235Z,21.20
2019-05-30T15:34:01.522Z,21.30
2019-05-30T15:36:32.111Z,21.40
2019-05-30T15:39:02.077Z,21.40
2019-05-30T15:41:32.007Z,21.30
2019-05-30T15:44:02.380Z,21.10
2019-05-30T15:46:32.323Z,21.10
2019-05-30T15:49:01.653Z,21.00
2019-05-30T15:51:31.961Z,21.00
2019-05-30T15:54:02.835Z,21.00
2019-05-30T15:56:33.177Z,21.00
2019-05-30T15:59:03.158Z,21.00
2019-05-30T16:01:33.552Z,21.00
2019-05-30T16:04:03.808Z,20.90
2019-05-30T16:06:33.413Z,20.80
2019-05-30T16:09:05.717Z,20.60
2019-05-30T16:11:35.956Z,20.60
2019-05-30T16:14:06.399Z,20.60
2019-05-30T16:16:40.096Z,20.70
2019-05-30T16:19:17.416Z,20.60
2019-05-30T16:21:43.161Z,20.70
2019-05-30T16:24:14.287Z,20.60
2019-05-30T16:26:44.825Z,20.60
2019-05-30T16:29:15.674Z,20.50
2019-05-30T16:31:45.768Z,20.50
2019-05-30T16:34:16.117Z,20.30
2019-05-30T16:36:45.866Z,20.10
2019-05-30T16:39:16.485Z,20.10
2019-05-30T16:41:45.826Z,20.00
2019-05-30T16:44:16.200Z,20.00
2019-05-30T16:46:46.544Z,20.00
2019-05-30T16:49:16.499Z,19.90
2019-05-30T16:51:46.270Z,19.90
2019-05-30T16:54:17.193Z,19.70
2019-05-30T16:56:47.542Z,19.60
2019-05-30T16:59:17.523Z,19.70
2019-05-30T17:01:57.248Z,19.60
2019-05-30T17:04:23.518Z,19.60
2019-05-30T17:06:53.919Z,19.60
2019-05-30T17:09:24.018Z,19.60
2019-05-30T17:11:53.705Z,19.50
2019-05-30T17:14:24.059Z,19.40
2019-05-30T17:16:54.836Z,19.50
2019-05-30T17:19:24.511Z,19.50
2019-05-30T17:21:53.954Z,19.40
2019-05-30T17:24:25.197Z,19.40
2019-05-30T17:26:55.027Z,19.30
2019-05-30T17:29:25.768Z,19.30
2019-05-30T17:31:56.128Z,19.30
2019-05-30T17:34:26.305Z,19.30
2019-05-30T17:36:56.874Z,19.30
2019-05-30T17:39:26.953Z,19.30
2019-05-30T17:41:57.151Z,19.20
2019-05-30T17:44:27.308Z,19.20
2019-05-30T17:46:57.320Z,19.20
2019-05-30T17:49:27.945Z,19.20
2019-05-30T17:51:57.987Z,19.10
2019-05-30T17:54:28.447Z,19.10
2019-05-30T17:56:58.437Z,19.10
2019-05-30T17:59:28.771Z,19.10
2019-05-30T18:02:00.874Z,19.10
2019-05-30T18:04:30.986Z,19.10
2019-05-30T18:07:01.706Z,19.00
2019-05-30T18:09:31.992Z,18.80
2019-05-30T18:12:02.908Z,18.70
2019-05-30T18:14:33.328Z,18.60
2019-05-30T18:17:03.147Z,18.50
2019-05-30T18:19:33.938Z,18.40
2019-05-30T18:22:03.949Z,18.30
2019-05-30T18:24:36.535Z,18.20
2019-05-30T18:27:06.291Z,18.20
2019-05-30T18:29:37.026Z,18.20
2019-05-30T18:32:06.696Z,18.10
2019-05-30T18:34:37.112Z,18.00
2019-05-30T18:37:06.920Z,18.00
2019-05-30T18:39:38.289Z,18.00
2019-05-30T18:42:08.753Z,18.00
2019-05-30T18:44:39.141Z,18.00
2019-05-30T18:47:09.265Z,17.90
2019-05-30T18:49:39.625Z,17.80
2019-05-30T18:52:10.445Z,17.60
2019-05-30T18:54:40.565Z,17.50
2019-05-30T18:57:10.842Z,17.40
2019-05-30T18:59:40.929Z,17.40
2019-05-30T19:02:11.383Z,17.50
2019-05-30T19:04:41.823Z,17.60
2019-05-30T19:07:12.577Z,17.60
2019-05-30T19:09:42.567Z,17.60
2019-05-30T19:12:13.314Z,17.50
2019-05-30T19:14:43.264Z,17.50
2019-05-30T19:17:13.951Z,17.50
2019-05-30T19:19:44.064Z,17.40
2019-05-30T19:22:13.846Z,17.40
2019-05-30T19:24:44.222Z,17.30
2019-05-30T19:27:14.688Z,17.20
2019-05-30T19:29:44.956Z,17.10
2019-05-30T19:32:15.440Z,17.00
2019-05-30T19:34:46.197Z,16.80
2019-05-30T19:37:16.282Z,16.70
2019-05-30T19:39:46.709Z,16.60
2019-05-30T19:42:19.710Z,16.70
2019-05-30T19:44:50.950Z,16.70
2019-05-30T19:47:21.882Z,16.90
2019-05-30T19:49:52.619Z,16.90
2019-05-30T19:52:23.280Z,16.90
2019-05-30T19:54:53.268Z,16.90
2019-05-30T19:57:23.550Z,16.90
2019-05-30T19:59:53.337Z,16.80
2019-05-30T20:02:23.618Z,16.80
2019-05-30T20:04:53.357Z,16.70
2019-05-30T20:07:22.733Z,16.70
2019-05-30T20:10:01.250Z,16.70
2019-05-30T20:12:24.767Z,16.50
2019-05-30T20:14:55.498Z,16.50
2019-05-30T20:17:25.503Z,16.40
2019-05-30T20:19:55.589Z,16.30
2019-05-30T20:22:26.226Z,16.20
2019-05-30T20:24:56.566Z,16.20
2019-05-30T20:27:27.352Z,16.20
2019-05-30T20:29:58.326Z,16.10
2019-05-30T20:32:29.389Z,16.10
2019-05-30T20:34:59.887Z,16.00
2019-05-30T20:37:30.016Z,16.00
2019-05-30T20:40:00.572Z,16.00
2019-05-30T20:42:30.595Z,16.00
2019-05-30T20:45:00.492Z,15.90
2019-05-30T20:47:31.071Z,15.90
2019-05-30T20:50:01.729Z,15.90
2019-05-30T20:52:32.202Z,15.80
2019-05-30T20:55:02.672Z,15.80
2019-05-30T20:57:34.264Z,15.80
2019-05-30T21:00:05.268Z,15.80
2019-05-30T21:02:36.691Z,15.80
2019-05-30T21:05:07.746Z,15.80
2019-05-30T21:07:39.715Z,15.70
2019-05-30T21:10:11.975Z,15.70
2019-05-30T21:12:46.517Z,15.70
2019-05-30T21:15:16.362Z,15.60
2019-05-30T21:17:47.073Z,15.60
2019-05-30T21:20:17.456Z,15.60
2019-05-30T21:22:47.824Z,15.60
2019-05-30T21:25:17.816Z,15.60
2019-05-30T21:27:48.153Z,15.60
2019-05-30T21:30:19.598Z,15.50
2019-05-30T21:32:50.520Z,15.50
2019-05-30T21:35:21.711Z,15.40
2019-05-30T21:37:51.595Z,15.40
2019-05-30T21:40:21.679Z,15.40
2019-05-30T21:43:05.065Z,15.40
2019-05-30T21:45:24.510Z,15.40
2019-05-30T21:47:55.283Z,15.40
2019-05-30T21:50:25.852Z,15.30
2019-05-30T21:52:58.549Z,15.30
2019-05-30T21:55:29.094Z,15.30
2019-05-30T21:58:00.326Z,15.40
2019-05-30T22:01:24.118Z,15.40
2019-05-30T22:03:55.222Z,15.30
2019-05-30T22:06:24.634Z,15.40
2019-05-30T22:08:55.420Z,15.40
2019-05-30T22:11:25.835Z,15.40
2019-05-30T22:13:56.065Z,15.40
2019-05-30T22:16:26.657Z,15.40
2019-05-30T22:18:58.371Z,15.40
2019-05-30T22:21:28.565Z,15.40
2019-05-30T22:23:59.585Z,15.40
2019-05-30T22:26:29.806Z,15.30
2019-05-30T22:28:59.767Z,15.40
2019-05-30T22:31:29.657Z,15.40
2019-05-30T22:33:59.886Z,15.40
2019-05-30T22:36:30.109Z,15.40
2019-05-30T22:39:00.346Z,15.40
2019-05-30T22:41:30.708Z,15.40
2019-05-30T22:44:00.960Z,15.40
2019-05-30T22:46:30.895Z,15.40
2019-05-30T22:49:01.107Z,15.40
2019-05-30T22:51:31.718Z,15.40
2019-05-30T22:54:01.672Z,15.30
2019-05-30T22:56:32.172Z,15.40
2019-05-30T22:59:02.473Z,15.40
2019-05-30T23:01:32.449Z,15.40
2019-05-30T23:04:02.744Z,15.40
2019-05-30T23:06:32.732Z,15.30
2019-05-30T23:09:03.254Z,15.30
2019-05-30T23:11:33.226Z,15.20
2019-05-30T23:14:03.501Z,15.20
2019-05-30T23:16:33.721Z,15.20
2019-05-30T23:19:03.682Z,15.20
2019-05-30T23:21:33.301Z,15.10
2019-05-30T23:24:03.567Z,15.10
2019-05-30T23:26:33.810Z,15.10
2019-05-30T23:29:04.430Z,15.20
2019-05-30T23:31:34.748Z,15.10
2019-05-30T23:34:05.064Z,15.20
2019-05-30T23:36:35.068Z,15.20
2019-05-30T23:39:07.020Z,15.20
2019-05-30T23:41:37.273Z,15.20
2019-05-30T23:44:11.475Z,15.20
2019-05-30T23:46:39.213Z,15.20
2019-05-30T23:49:09.074Z,15.20
2019-05-30T23:51:39.320Z,15.10
2019-05-30T23:54:09.285Z,15.10
2019-05-30T23:56:42.112Z,15.10
2019-05-30T23:59:10.272Z,15.00
